createdAt,value
2018-12-17T00:00:50.467Z,45.30
2018-12-17T00:03:19.130Z,45.40
2018-12-17T00:05:47.757Z,45.30
2018-12-17T00:08:16.401Z,45.20
2018-12-17T00:10:45.065Z,45.40
2018-12-17T00:13:13.730Z,46.20
2018-12-17T00:15:42.381Z,45.90
2018-12-17T00:18:11.028Z,45.90
2018-12-17T00:20:39.667Z,46.10
2018-12-17T00:23:08.351Z,46.10
2018-12-17T00:25:37.389Z,46.20
2018-12-17T00:28:08.277Z,45.90
2018-12-17T00:30:36.670Z,46.30
2018-12-17T00:33:05.266Z,46.30
2018-12-17T00:35:33.909Z,46.40
2018-12-17T00:38:02.510Z,46.40
2018-12-17T00:40:32.090Z,46.30
2018-12-17T00:43:00.730Z,46.30
2018-12-17T00:45:29.351Z,46.30
2018-12-17T00:47:57.944Z,46.20
2018-12-17T00:50:26.605Z,46.30
2018-12-17T00:52:55.266Z,46.30
2018-12-17T00:55:23.889Z,46.20
2018-12-17T00:57:52.514Z,46.20
2018-12-17T01:00:21.161Z,46.30
2018-12-17T01:02:49.814Z,46.30
2018-12-17T01:05:18.440Z,46.30
2018-12-17T01:07:47.182Z,46.30
2018-12-17T01:10:15.827Z,46.40
2018-12-17T01:12:44.464Z,46.40
2018-12-17T01:15:13.101Z,46.50
2018-12-17T01:17:41.799Z,46.60
2018-12-17T01:20:10.444Z,46.60
2018-12-17T01:22:39.062Z,46.70
2018-12-17T01:25:07.692Z,46.70
2018-12-17T01:27:36.295Z,46.90
2018-12-17T01:30:05.722Z,46.90
2018-12-17T01:32:34.839Z,46.90
2018-12-17T01:35:03.768Z,47.00
2018-12-17T01:37:32.377Z,47.00
2018-12-17T01:40:00.984Z,47.00
2018-12-17T01:42:29.648Z,47.00
2018-12-17T01:44:58.266Z,47.10
2018-12-17T01:47:26.929Z,47.00
2018-12-17T01:49:55.588Z,47.00
2018-12-17T01:52:24.282Z,47.00
2018-12-17T01:54:52.899Z,47.00
2018-12-17T01:57:21.528Z,47.00
2018-12-17T01:59:50.137Z,47.00
2018-12-17T02:02:18.786Z,46.90
2018-12-17T02:04:51.197Z,46.90
2018-12-17T02:07:20.647Z,46.80
2018-12-17T02:09:49.267Z,46.90
2018-12-17T02:12:17.873Z,46.90
2018-12-17T02:14:46.470Z,46.70
2018-12-17T02:17:15.058Z,46.80
2018-12-17T02:19:43.653Z,46.80
2018-12-17T02:22:12.400Z,46.20
2018-12-17T02:24:41.005Z,46.80
2018-12-17T02:27:09.608Z,46.80
2018-12-17T02:29:38.220Z,46.80
2018-12-17T02:32:06.890Z,46.80
2018-12-17T02:34:35.478Z,46.80
2018-12-17T02:37:04.113Z,47.00
2018-12-17T02:39:32.759Z,47.00
2018-12-17T02:42:01.373Z,47.00
2018-12-17T02:44:30.307Z,47.10
2018-12-17T02:46:58.937Z,47.10
2018-12-17T02:49:27.595Z,47.20
2018-12-17T02:51:56.450Z,47.20
2018-12-17T02:54:25.073Z,47.30
2018-12-17T02:56:53.833Z,47.40
2018-12-17T02:59:22.494Z,47.40
2018-12-17T03:01:51.086Z,47.40
2018-12-17T03:04:19.684Z,47.40
2018-12-17T03:06:48.330Z,47.50
2018-12-17T03:09:17.106Z,47.50
2018-12-17T03:11:45.761Z,47.40
2018-12-17T03:14:14.372Z,47.50
2018-12-17T03:16:42.948Z,47.50
2018-12-17T03:19:11.603Z,47.60
2018-12-17T03:21:40.257Z,47.50
2018-12-17T03:24:08.865Z,48.20
2018-12-17T03:26:37.523Z,47.50
2018-12-17T03:29:06.177Z,47.50
2018-12-17T03:31:35.091Z,47.40
2018-12-17T03:34:03.713Z,47.40
2018-12-17T03:36:32.357Z,47.40
2018-12-17T03:39:00.973Z,47.30
2018-12-17T03:41:29.719Z,47.30
2018-12-17T03:43:58.368Z,47.30
2018-12-17T03:46:27.011Z,47.30
2018-12-17T03:48:55.656Z,47.30
2018-12-17T03:51:24.302Z,47.20
2018-12-17T03:53:53.622Z,47.20
2018-12-17T03:56:22.806Z,47.20
2018-12-17T03:58:59.087Z,47.20
2018-12-17T04:01:23.945Z,47.20
2018-12-17T04:03:53.666Z,47.20
2018-12-17T04:06:23.097Z,47.20
2018-12-17T04:08:52.206Z,47.20
2018-12-17T04:11:21.068Z,47.20
2018-12-17T04:13:49.745Z,47.20
2018-12-17T04:16:18.342Z,47.20
2018-12-17T04:18:47.029Z,47.20
2018-12-17T04:21:15.833Z,47.20
2018-12-17T04:23:44.488Z,47.20
2018-12-17T04:26:13.246Z,47.20
2018-12-17T04:28:41.979Z,47.20
2018-12-17T04:31:10.644Z,47.10
2018-12-17T04:33:39.257Z,47.20
2018-12-17T04:36:07.850Z,47.10
2018-12-17T04:38:36.472Z,47.70
2018-12-17T04:41:05.105Z,47.10
2018-12-17T04:43:33.729Z,47.10
2018-12-17T04:46:02.309Z,47.10
2018-12-17T04:48:30.916Z,47.10
2018-12-17T04:50:59.524Z,47.10
2018-12-17T04:53:28.170Z,47.10
2018-12-17T04:55:56.799Z,47.10
2018-12-17T04:58:25.409Z,47.10
2018-12-17T05:00:54.054Z,47.10
2018-12-17T05:03:22.679Z,47.10
2018-12-17T05:05:51.278Z,47.20
2018-12-17T05:08:19.906Z,47.10
2018-12-17T05:10:48.524Z,47.20
2018-12-17T05:13:17.244Z,47.20
2018-12-17T05:15:45.933Z,47.20
2018-12-17T05:18:14.566Z,47.20
2018-12-17T05:20:43.162Z,47.20
2018-12-17T05:23:11.842Z,47.10
2018-12-17T05:25:40.578Z,47.20
2018-12-17T05:28:09.237Z,47.20
2018-12-17T05:30:37.827Z,47.10
2018-12-17T05:33:06.566Z,47.20
2018-12-17T05:35:36.079Z,47.20
2018-12-17T05:38:04.680Z,47.10
2018-12-17T05:40:33.273Z,47.10
2018-12-17T05:43:01.882Z,47.20
2018-12-17T05:45:30.545Z,47.10
2018-12-17T05:47:59.129Z,47.10
2018-12-17T05:50:28.374Z,47.10
2018-12-17T05:52:56.961Z,47.20
2018-12-17T05:55:25.566Z,47.10
2018-12-17T05:57:54.169Z,47.20
2018-12-17T06:00:23.708Z,47.20
2018-12-17T06:02:52.396Z,47.20
2018-12-17T06:05:20.993Z,47.20
2018-12-17T06:07:49.668Z,47.20
2018-12-17T06:10:18.262Z,47.20
2018-12-17T06:12:46.863Z,47.20
2018-12-17T06:15:15.549Z,47.20
2018-12-17T06:17:44.183Z,47.20
2018-12-17T06:20:12.828Z,47.20
2018-12-17T06:22:41.445Z,47.20
2018-12-17T06:25:10.696Z,47.20
2018-12-17T06:27:39.334Z,47.20
2018-12-17T06:30:08.176Z,47.10
2018-12-17T06:32:36.765Z,47.20
2018-12-17T06:35:08.865Z,47.10
2018-12-17T06:37:37.477Z,47.00
2018-12-17T06:40:10.232Z,46.90
2018-12-17T06:42:37.886Z,47.10
2018-12-17T06:45:06.814Z,47.10
2018-12-17T06:47:35.751Z,47.20
2018-12-17T06:50:05.508Z,47.20
2018-12-17T06:52:34.106Z,47.00
2018-12-17T06:55:02.710Z,47.00
2018-12-17T06:57:31.302Z,47.00
2018-12-17T06:59:59.941Z,47.00
2018-12-17T07:02:28.598Z,47.10
2018-12-17T07:04:57.192Z,47.10
2018-12-17T07:07:25.847Z,47.10
2018-12-17T07:09:54.496Z,47.20
2018-12-17T07:12:23.141Z,47.10
2018-12-17T07:14:51.812Z,47.30
2018-12-17T07:17:20.439Z,47.20
2018-12-17T07:19:49.056Z,47.20
2018-12-17T07:22:17.685Z,47.20
2018-12-17T07:24:46.339Z,47.20
2018-12-17T07:27:14.930Z,47.10
2018-12-17T07:29:49.586Z,47.00
2018-12-17T07:32:14.221Z,46.90
2018-12-17T07:34:43.334Z,46.90
2018-12-17T07:37:11.953Z,46.80
2018-12-17T07:39:41.020Z,47.00
2018-12-17T07:42:09.631Z,47.20
2018-12-17T07:44:38.263Z,47.00
2018-12-17T07:47:06.849Z,47.20
2018-12-17T07:49:35.473Z,47.20
2018-12-17T07:52:04.165Z,47.20
2018-12-17T07:54:32.779Z,47.30
2018-12-17T07:57:01.389Z,47.40
2018-12-17T07:59:30.060Z,47.50
2018-12-17T08:01:59.182Z,47.80
2018-12-17T08:04:28.017Z,47.90
2018-12-17T08:06:56.675Z,48.70
2018-12-17T08:09:25.292Z,48.40
2018-12-17T08:11:54.461Z,48.40
2018-12-17T08:14:23.055Z,48.40
2018-12-17T08:16:52.217Z,48.30
2018-12-17T08:19:20.929Z,48.30
2018-12-17T08:21:49.590Z,48.20
2018-12-17T08:24:18.291Z,48.10
2018-12-17T08:26:46.905Z,48.10
2018-12-17T08:29:15.575Z,48.10
2018-12-17T08:31:45.467Z,48.10
2018-12-17T08:34:14.173Z,48.00
2018-12-17T08:36:42.788Z,48.00
2018-12-17T08:39:11.505Z,48.00
2018-12-17T08:41:40.140Z,48.00
2018-12-17T08:44:10.013Z,48.60
2018-12-17T08:46:38.683Z,48.00
2018-12-17T08:49:07.344Z,48.00
2018-12-17T08:51:36.040Z,47.90
2018-12-17T08:54:04.765Z,47.90
2018-12-17T08:56:33.370Z,47.80
2018-12-17T08:59:04.896Z,47.80
2018-12-17T09:01:35.389Z,47.70
2018-12-17T09:04:04.141Z,47.60
2018-12-17T09:06:32.848Z,47.60
2018-12-17T09:09:01.514Z,47.50
2018-12-17T09:11:30.117Z,47.50
2018-12-17T09:13:58.779Z,47.50
2018-12-17T09:16:27.369Z,47.40
2018-12-17T09:18:56.069Z,47.40
2018-12-17T09:21:24.704Z,47.50
2018-12-17T09:23:54.009Z,47.50
2018-12-17T09:26:24.217Z,47.60
2018-12-17T09:28:53.250Z,47.60
2018-12-17T09:31:21.853Z,47.60
2018-12-17T09:33:50.485Z,47.60
2018-12-17T09:36:19.727Z,47.60
2018-12-17T09:38:48.385Z,47.60
2018-12-17T09:41:16.990Z,47.60
2018-12-17T09:43:45.622Z,47.70
2018-12-17T09:46:14.228Z,47.80
2018-12-17T09:48:42.868Z,47.60
2018-12-17T09:51:11.518Z,47.40
2018-12-17T09:53:40.115Z,47.50
2018-12-17T09:56:08.727Z,47.60
2018-12-17T09:58:37.352Z,47.60
2018-12-17T10:01:06.010Z,47.60
2018-12-17T10:03:34.626Z,47.60
2018-12-17T10:09:06.731Z,47.60
2018-12-17T10:11:35.280Z,47.50
2018-12-17T10:14:03.813Z,47.50
2018-12-17T10:16:32.336Z,47.40
2018-12-17T10:19:00.834Z,47.40
2018-12-17T10:21:29.303Z,47.30
2018-12-17T10:23:57.981Z,47.30
2018-12-17T10:26:26.589Z,47.30
2018-12-17T10:28:55.092Z,47.20
2018-12-17T10:31:23.603Z,47.30
2018-12-17T10:33:52.125Z,47.20
2018-12-17T10:36:20.645Z,47.20
2018-12-17T10:38:49.161Z,47.20
2018-12-17T10:41:17.690Z,47.30
2018-12-17T10:43:46.205Z,47.30
2018-12-17T10:46:14.768Z,47.30
2018-12-17T10:48:43.282Z,47.40
2018-12-17T10:51:11.777Z,47.40
2018-12-17T10:53:40.291Z,47.50
2018-12-17T10:56:09.919Z,47.50
2018-12-17T10:58:38.797Z,47.50
2018-12-17T11:01:12.701Z,47.50
2018-12-17T11:03:45.957Z,47.30
2018-12-17T11:06:16.720Z,47.10
2018-12-17T11:08:45.308Z,47.10
2018-12-17T11:11:13.906Z,46.90
2018-12-17T11:13:42.508Z,46.90
2018-12-17T11:16:11.072Z,46.80
2018-12-17T11:18:39.670Z,46.70
2018-12-17T11:21:08.183Z,46.90
2018-12-17T11:23:37.656Z,46.70
2018-12-17T11:26:06.260Z,46.70
2018-12-17T11:28:34.773Z,46.60
2018-12-17T11:31:03.293Z,47.20
2018-12-17T11:33:32.038Z,46.60
2018-12-17T11:36:00.524Z,46.50
2018-12-17T11:38:29.090Z,46.60
2018-12-17T11:40:57.702Z,46.60
2018-12-17T11:43:26.313Z,46.50
2018-12-17T11:45:55.394Z,46.60
2018-12-17T11:48:33.224Z,46.50
2018-12-17T11:51:01.730Z,46.50
2018-12-17T11:53:30.319Z,46.60
2018-12-17T11:55:58.860Z,46.50
2018-12-17T11:58:27.428Z,46.50
2018-12-17T12:01:00.978Z,46.50
2018-12-17T12:03:30.627Z,46.40
2018-12-17T12:05:59.130Z,46.20
2018-12-17T12:08:27.676Z,46.10
2018-12-17T12:10:56.621Z,46.00
2018-12-17T12:13:25.131Z,45.90
2018-12-17T12:15:53.621Z,45.80
2018-12-17T12:18:22.737Z,45.70
2018-12-17T12:20:52.329Z,45.60
2018-12-17T12:23:21.256Z,45.60
2018-12-17T12:25:49.858Z,45.50
2018-12-17T12:28:18.369Z,46.00
2018-12-17T12:30:46.896Z,45.50
2018-12-17T12:33:15.409Z,45.50
2018-12-17T12:35:43.988Z,45.50
2018-12-17T12:38:12.495Z,45.60
2018-12-17T12:40:41.003Z,45.50
2018-12-17T12:43:09.495Z,45.60
2018-12-17T12:45:37.991Z,45.60
2018-12-17T12:48:06.853Z,45.60
2018-12-17T12:50:35.388Z,45.70
2018-12-17T12:53:03.996Z,45.50
2018-12-17T12:55:32.512Z,45.60
2018-12-17T12:58:03.803Z,45.90
2018-12-17T13:00:31.714Z,46.00
2018-12-17T13:03:00.269Z,46.00
2018-12-17T13:05:28.844Z,46.10
2018-12-17T13:07:57.421Z,46.10
2018-12-17T13:10:26.446Z,46.10
2018-12-17T13:12:55.008Z,46.20
2018-12-17T13:15:23.548Z,46.20
2018-12-17T13:17:52.611Z,46.30
2018-12-17T13:20:21.138Z,46.30
2018-12-17T13:22:49.666Z,46.30
2018-12-17T13:25:38.991Z,46.40
2018-12-17T13:28:07.480Z,46.30
2018-12-17T13:30:36.180Z,46.40
2018-12-17T13:33:04.680Z,46.40
2018-12-17T13:35:33.199Z,46.40
2018-12-17T13:38:01.757Z,46.40
2018-12-17T13:40:30.249Z,46.40
2018-12-17T13:42:58.784Z,46.40
2018-12-17T13:45:27.280Z,46.20
2018-12-17T13:47:55.765Z,46.20
2018-12-17T13:50:30.273Z,46.30
2018-12-17T13:53:04.340Z,46.20
2018-12-17T13:55:32.872Z,46.10
2018-12-17T13:58:01.336Z,46.00
2018-12-17T14:00:29.831Z,45.90
2018-12-17T14:02:58.349Z,45.90
2018-12-17T14:05:26.878Z,45.90
2018-12-17T14:07:55.530Z,45.90
2018-12-17T14:10:29.191Z,46.00
2018-12-17T14:12:57.695Z,45.90
2018-12-17T14:15:30.408Z,46.00
2018-12-17T14:17:58.936Z,46.10
2018-12-17T14:20:32.824Z,46.10
2018-12-17T14:23:01.319Z,46.20
2018-12-17T14:25:29.814Z,46.20
2018-12-17T14:27:58.289Z,46.10
2018-12-17T14:30:26.765Z,46.20
2018-12-17T14:32:55.236Z,46.30
2018-12-17T14:35:23.748Z,46.20
2018-12-17T14:38:02.140Z,46.20
2018-12-17T14:40:30.922Z,46.30
2018-12-17T14:42:59.446Z,46.30
2018-12-17T14:45:28.309Z,46.90
2018-12-17T14:47:56.807Z,46.40
2018-12-17T14:50:25.648Z,46.50
2018-12-17T14:52:54.971Z,46.50
2018-12-17T14:55:23.462Z,46.60
2018-12-17T14:57:51.974Z,47.40
2018-12-17T15:00:20.505Z,46.60
2018-12-17T15:02:49.000Z,46.70
2018-12-17T15:05:17.490Z,46.70
2018-12-17T15:07:46.009Z,46.60
2018-12-17T15:10:14.533Z,46.70
2018-12-17T15:12:43.048Z,46.60
2018-12-17T15:15:11.657Z,46.60
2018-12-17T15:17:40.136Z,46.60
2018-12-17T15:20:09.220Z,46.60
2018-12-17T15:22:37.727Z,46.60
2018-12-17T15:25:07.320Z,46.60
2018-12-17T15:27:35.909Z,46.60
2018-12-17T15:30:04.632Z,46.60
2018-12-17T15:32:33.244Z,46.60
2018-12-17T15:35:02.040Z,46.50
2018-12-17T15:37:30.542Z,46.60
2018-12-17T15:39:59.019Z,46.60
2018-12-17T15:42:27.523Z,46.50
2018-12-17T15:44:56.016Z,46.60
2018-12-17T15:47:24.693Z,46.60
2018-12-17T15:49:53.211Z,46.50
2018-12-17T15:52:21.724Z,46.50
2018-12-17T15:54:50.226Z,46.50
2018-12-17T15:57:23.820Z,46.50
2018-12-17T15:59:52.367Z,46.50
2018-12-17T16:02:20.877Z,46.50
2018-12-17T16:04:49.347Z,46.40
2018-12-17T16:07:48.624Z,46.40
2018-12-17T16:10:17.127Z,46.50
2018-12-17T16:12:45.657Z,46.40
2018-12-17T16:15:14.204Z,46.60
2018-12-17T16:17:42.744Z,46.40
2018-12-17T16:20:11.263Z,46.50
2018-12-17T16:22:39.800Z,47.10
2018-12-17T16:25:08.304Z,46.60
2018-12-17T16:27:36.822Z,46.50
2018-12-17T16:30:06.522Z,46.90
2018-12-17T16:32:35.021Z,47.00
2018-12-17T16:35:03.553Z,47.00
2018-12-17T16:37:32.051Z,47.60
2018-12-17T16:40:00.537Z,47.20
2018-12-17T16:42:29.008Z,47.20
2018-12-17T16:44:57.485Z,47.20
2018-12-17T16:47:25.992Z,47.20
2018-12-17T16:49:54.511Z,47.20
2018-12-17T16:52:23.008Z,47.10
2018-12-17T16:54:51.527Z,47.20
2018-12-17T16:57:20.046Z,47.20
2018-12-17T16:59:48.556Z,47.10
2018-12-17T17:02:17.093Z,47.20
2018-12-17T17:04:45.589Z,50.70
2018-12-17T17:07:14.089Z,48.10
2018-12-17T17:09:42.637Z,47.50
2018-12-17T17:12:11.129Z,48.40
2018-12-17T17:14:39.654Z,50.60
2018-12-17T17:17:08.160Z,50.20
2018-12-17T17:19:36.699Z,50.30
2018-12-17T17:22:05.212Z,49.70
2018-12-17T17:24:33.744Z,49.50
2018-12-17T17:27:02.264Z,49.70
2018-12-17T17:29:30.776Z,49.60
2018-12-17T17:31:59.305Z,49.50
2018-12-17T17:34:27.800Z,49.80
2018-12-17T17:36:56.344Z,49.80
2018-12-17T17:39:24.845Z,49.50
2018-12-17T17:41:53.695Z,49.70
2018-12-17T17:44:22.301Z,49.70
2018-12-17T17:46:50.823Z,49.40
2018-12-17T17:49:19.341Z,49.40
2018-12-17T17:51:47.859Z,49.30
2018-12-17T17:54:16.541Z,49.30
2018-12-17T17:56:45.024Z,49.20
2018-12-17T17:59:13.520Z,49.20
2018-12-17T18:01:43.170Z,49.20
2018-12-17T18:04:11.979Z,49.20
2018-12-17T18:06:40.516Z,49.30
2018-12-17T18:09:09.405Z,49.20
2018-12-17T18:11:38.004Z,49.30
2018-12-17T18:14:06.521Z,49.20
2018-12-17T18:16:35.031Z,49.10
2018-12-17T18:19:04.492Z,48.90
2018-12-17T18:21:32.994Z,48.70
2018-12-17T18:24:01.500Z,48.60
2018-12-17T18:26:30.116Z,48.50
2018-12-17T18:28:58.636Z,48.40
2018-12-17T18:31:27.670Z,48.30
2018-12-17T18:33:57.017Z,48.30
2018-12-17T18:36:25.956Z,48.20
2018-12-17T18:38:54.735Z,48.40
2018-12-17T18:41:24.177Z,48.30
2018-12-17T18:43:52.666Z,48.20
2018-12-17T18:46:21.230Z,48.00
2018-12-17T18:48:49.758Z,48.00
2018-12-17T18:51:18.305Z,48.00
2018-12-17T18:53:46.833Z,47.90
2018-12-17T18:56:15.940Z,47.80
2018-12-17T18:58:44.455Z,47.80
2018-12-17T19:01:13.110Z,47.70
2018-12-17T19:03:41.656Z,47.70
2018-12-17T19:06:11.351Z,47.70
2018-12-17T19:08:39.885Z,47.60
2018-12-17T19:11:08.380Z,47.50
2018-12-17T19:13:36.945Z,47.50
2018-12-17T19:16:06.261Z,47.70
2018-12-17T19:18:36.748Z,47.70
2018-12-17T19:21:05.764Z,47.80
2018-12-17T19:23:34.299Z,47.70
2018-12-17T19:26:03.516Z,47.60
2018-12-17T19:28:32.548Z,47.40
2018-12-17T19:31:01.261Z,47.20
2018-12-17T19:33:30.413Z,46.90
2018-12-17T19:35:59.968Z,46.70
2018-12-17T19:38:28.485Z,46.40
2018-12-17T19:40:57.060Z,46.50
2018-12-17T19:43:26.122Z,46.40
2018-12-17T19:45:54.730Z,46.40
2018-12-17T19:48:23.324Z,46.30
2018-12-17T19:50:51.969Z,46.60
2018-12-17T19:53:20.613Z,46.90
2018-12-17T19:55:49.200Z,46.80
2018-12-17T19:58:17.811Z,47.00
2018-12-17T20:00:46.677Z,47.00
2018-12-17T20:03:15.336Z,47.10
2018-12-17T20:05:43.841Z,47.10
2018-12-17T20:08:12.357Z,47.20
2018-12-17T20:10:40.879Z,47.80
2018-12-17T20:13:09.431Z,48.10
2018-12-17T20:15:38.032Z,48.20
2018-12-17T20:18:06.734Z,48.00
2018-12-17T20:20:36.116Z,47.90
2018-12-17T20:23:05.220Z,47.90
2018-12-17T20:25:34.635Z,47.90
2018-12-17T20:28:04.257Z,47.90
2018-12-17T20:30:32.926Z,47.90
2018-12-17T20:33:02.357Z,47.90
2018-12-17T20:35:31.244Z,47.90
2018-12-17T20:37:59.886Z,47.90
2018-12-17T20:40:29.809Z,47.90
2018-12-17T20:42:59.165Z,47.80
2018-12-17T20:45:28.058Z,47.90
2018-12-17T20:47:56.611Z,48.00
2018-12-17T20:50:26.030Z,48.00
2018-12-17T20:52:54.974Z,48.10
2018-12-17T20:55:23.523Z,48.10
2018-12-17T20:57:52.574Z,48.10
2018-12-17T21:00:21.189Z,48.20
2018-12-17T21:02:49.853Z,48.20
2018-12-17T21:05:18.482Z,48.20
2018-12-17T21:07:47.009Z,48.30
2018-12-17T21:10:15.574Z,48.30
2018-12-17T21:12:44.113Z,48.30
2018-12-17T21:15:12.750Z,48.30
2018-12-17T21:17:41.309Z,48.40
2018-12-17T21:20:09.901Z,48.40
2018-12-17T21:22:39.013Z,48.40
2018-12-17T21:25:07.754Z,48.40
2018-12-17T21:27:37.248Z,48.40
2018-12-17T21:30:05.893Z,48.40
2018-12-17T21:32:34.432Z,48.40
2018-12-17T21:35:03.078Z,48.30
2018-12-17T21:37:31.610Z,48.30
2018-12-17T21:40:00.304Z,48.20
2018-12-17T21:42:28.816Z,48.30
2018-12-17T21:44:57.332Z,48.20
2018-12-17T21:47:25.859Z,48.30
2018-12-17T21:49:54.357Z,48.20
2018-12-17T21:52:22.960Z,48.20
2018-12-17T21:54:51.504Z,48.20
2018-12-17T21:57:20.163Z,48.20
2018-12-17T21:59:48.710Z,48.20
2018-12-17T22:02:17.253Z,48.20
2018-12-17T22:04:45.793Z,48.20
2018-12-17T22:07:14.308Z,48.30
2018-12-17T22:09:43.634Z,48.20
2018-12-17T22:12:12.141Z,48.30
2018-12-17T22:14:41.396Z,48.40
2018-12-17T22:17:10.719Z,48.40
2018-12-17T22:19:39.239Z,48.50
2018-12-17T22:22:07.812Z,48.50
2018-12-17T22:24:36.351Z,48.50
2018-12-17T22:27:05.886Z,48.40
2018-12-17T22:29:34.483Z,48.30
2018-12-17T22:32:03.080Z,48.20
2018-12-17T22:34:31.648Z,48.10
2018-12-17T22:37:00.177Z,48.00
2018-12-17T22:39:28.714Z,48.10
2018-12-17T22:41:57.731Z,48.10
2018-12-17T22:44:26.442Z,47.90
2018-12-17T22:46:55.464Z,47.80
2018-12-17T22:49:24.031Z,47.60
2018-12-17T22:51:52.631Z,47.60
2018-12-17T22:54:21.551Z,47.50
2018-12-17T22:56:50.842Z,47.40
2018-12-17T22:59:19.844Z,47.40
2018-12-17T23:01:48.339Z,47.30
2018-12-17T23:04:16.868Z,47.30
2018-12-17T23:06:45.411Z,47.20
2018-12-17T23:09:12.849Z,47.20
2018-12-17T23:11:58.031Z,47.10
2018-12-17T23:14:38.174Z,47.10
2018-12-17T23:17:17.822Z,47.30
2018-12-17T23:19:46.340Z,47.30
2018-12-17T23:22:15.005Z,47.40
2018-12-17T23:24:43.623Z,47.50
2018-12-17T23:27:12.165Z,47.60
2018-12-17T23:29:40.679Z,47.70
2018-12-17T23:32:09.191Z,47.60
2018-12-17T23:34:52.066Z,47.80
2018-12-17T23:37:20.615Z,47.70
2018-12-17T23:39:49.260Z,47.80
2018-12-17T23:42:17.784Z,47.80
2018-12-17T23:44:46.287Z,47.90
2018-12-17T23:47:14.798Z,48.40
2018-12-17T23:49:43.280Z,47.90
2018-12-17T23:52:11.786Z,47.90
2018-12-17T23:54:40.298Z,47.90
2018-12-17T23:57:08.773Z,48.00
2018-12-17T23:59:37.527Z,48.00
